createdAt,value
2022-08-19T00:00:13.460Z,78.20
2022-08-19T00:03:01.735Z,78.18
2022-08-19T00:05:30.148Z,78.24
2022-08-19T00:07:58.586Z,78.26
2022-08-19T00:10:27.134Z,78.29
2022-08-19T00:12:55.466Z,78.29
2022-08-19T00:15:23.813Z,78.29
2022-08-19T00:17:52.171Z,78.55
2022-08-19T00:20:22.442Z,78.75
2022-08-19T00:22:51.162Z,78.80
2022-08-19T00:25:19.561Z,78.94
2022-08-19T00:28:00.434Z,79.21
2022-08-19T00:30:29.663Z,79.02
2022-08-19T00:32:59.074Z,79.21
2022-08-19T00:35:30.925Z,79.14
2022-08-19T00:37:59.464Z,79.50
2022-08-19T00:40:27.821Z,79.57
2022-08-19T00:42:56.096Z,79.56
2022-08-19T00:45:29.222Z,79.93
2022-08-19T00:47:57.591Z,79.79
2022-08-19T00:50:25.983Z,80.11
2022-08-19T00:52:54.522Z,80.21
2022-08-19T00:55:29.032Z,80.31
2022-08-19T00:58:08.499Z,80.49
2022-08-19T01:00:38.345Z,80.45
2022-08-19T01:03:14.902Z,80.65
2022-08-19T01:05:46.831Z,80.78
2022-08-19T01:08:18.063Z,80.80
2022-08-19T01:10:55.435Z,81.41
2022-08-19T01:13:30.264Z,82.91
2022-08-19T01:16:21.688Z,82.84
2022-08-19T01:18:51.028Z,83.01
2022-08-19T01:21:26.254Z,82.92
2022-08-19T01:23:54.724Z,82.07
2022-08-19T01:26:26.312Z,82.02
2022-08-19T01:29:00.689Z,81.72
2022-08-19T01:31:33.451Z,81.55
2022-08-19T01:34:03.110Z,81.53
2022-08-19T01:36:42.921Z,81.54
2022-08-19T01:39:22.859Z,81.47
2022-08-19T01:41:55.303Z,81.44
2022-08-19T01:44:25.078Z,81.49
2022-08-19T01:46:53.503Z,81.36
2022-08-19T01:49:26.077Z,81.50
2022-08-19T01:51:55.750Z,81.61
2022-08-19T01:54:27.524Z,81.64
2022-08-19T01:57:07.802Z,81.69
2022-08-19T01:59:37.587Z,81.73
2022-08-19T02:02:09.428Z,81.77
2022-08-19T02:04:39.126Z,81.96
2022-08-19T02:07:09.145Z,81.89
2022-08-19T02:09:37.707Z,82.01
2022-08-19T02:12:10.166Z,82.07
2022-08-19T02:14:38.506Z,82.28
2022-08-19T02:17:07.215Z,82.28
2022-08-19T02:19:35.763Z,82.42
2022-08-19T02:22:07.942Z,82.55
2022-08-19T02:24:36.196Z,82.68
2022-08-19T02:27:05.937Z,82.93
2022-08-19T02:29:34.344Z,82.95
2022-08-19T02:32:03.036Z,83.30
2022-08-19T02:34:31.471Z,83.42
2022-08-19T02:37:03.596Z,83.49
2022-08-19T02:39:32.641Z,83.80
2022-08-19T02:42:03.052Z,83.95
2022-08-19T02:44:32.094Z,84.03
2022-08-19T02:47:00.488Z,84.20
2022-08-19T02:49:28.819Z,84.37
2022-08-19T02:51:57.087Z,84.41
2022-08-19T02:54:25.388Z,84.60
2022-08-19T02:56:53.746Z,84.72
2022-08-19T02:59:22.986Z,84.88
2022-08-19T03:01:51.560Z,85.08
2022-08-19T03:04:20.527Z,85.23
2022-08-19T03:06:50.292Z,85.33
2022-08-19T03:09:20.980Z,85.56
2022-08-19T03:11:52.037Z,85.65
2022-08-19T03:14:21.596Z,85.69
2022-08-19T03:16:53.585Z,85.81
2022-08-19T03:19:24.845Z,85.99
2022-08-19T03:21:53.645Z,86.09
2022-08-19T03:24:22.711Z,86.27
2022-08-19T03:26:58.698Z,86.42
2022-08-19T03:29:31.786Z,86.67
2022-08-19T03:32:04.762Z,86.90
2022-08-19T03:34:35.808Z,86.92
2022-08-19T03:37:10.640Z,87.07
2022-08-19T03:39:41.108Z,87.31
2022-08-19T03:42:47.863Z,87.45
2022-08-19T03:44:59.436Z,87.67
2022-08-19T03:47:27.807Z,87.74
2022-08-19T03:49:56.595Z,88.01
2022-08-19T03:52:24.890Z,88.19
2022-08-19T03:54:53.257Z,88.35
2022-08-19T03:57:21.634Z,88.59
2022-08-19T04:00:12.978Z,88.75
2022-08-19T04:02:58.178Z,89.04
2022-08-19T04:05:30.263Z,89.19
2022-08-19T04:07:59.862Z,89.35
2022-08-19T04:10:29.441Z,89.56
2022-08-19T04:12:57.828Z,89.80
2022-08-19T04:15:26.120Z,89.91
2022-08-19T04:17:54.424Z,90.08
2022-08-19T04:20:22.782Z,90.34
2022-08-19T04:22:51.023Z,90.51
2022-08-19T04:25:19.320Z,90.75
2022-08-19T04:27:47.955Z,91.12
2022-08-19T04:30:16.412Z,94.17
2022-08-19T04:32:44.893Z,94.67
2022-08-19T04:35:17.621Z,94.65
2022-08-19T04:37:47.636Z,94.98
2022-08-19T04:40:35.009Z,94.10
2022-08-19T04:43:03.392Z,93.09
2022-08-19T04:45:39.573Z,92.88
2022-08-19T04:48:27.262Z,92.84
2022-08-19T04:50:58.687Z,92.72
2022-08-19T04:53:37.980Z,92.57
2022-08-19T04:56:12.878Z,92.49
2022-08-19T04:58:44.046Z,92.36
2022-08-19T05:01:20.343Z,92.28
2022-08-19T05:03:50.192Z,92.30
2022-08-19T05:06:21.800Z,92.08
2022-08-19T05:08:51.024Z,92.08
2022-08-19T05:11:29.422Z,92.01
2022-08-19T05:13:58.876Z,92.01
2022-08-19T05:16:28.712Z,92.07
2022-08-19T05:19:15.870Z,91.98
2022-08-19T05:22:03.876Z,91.96
2022-08-19T05:24:35.187Z,91.80
2022-08-19T05:27:06.651Z,91.82
2022-08-19T05:29:36.578Z,91.66
2022-08-19T05:32:09.288Z,91.58
2022-08-19T05:34:41.661Z,91.59
2022-08-19T05:37:10.106Z,91.44
2022-08-19T05:39:39.114Z,91.51
2022-08-19T05:42:11.255Z,91.39
2022-08-19T05:44:45.236Z,91.37
2022-08-19T05:47:15.978Z,91.48
2022-08-19T05:49:44.982Z,91.41
2022-08-19T05:52:19.561Z,91.30
2022-08-19T05:54:56.715Z,91.35
2022-08-19T05:57:25.828Z,91.19
2022-08-19T05:59:58.218Z,91.09
2022-08-19T06:02:29.344Z,91.23
2022-08-19T06:04:57.694Z,91.02
2022-08-19T06:07:26.695Z,90.99
2022-08-19T06:10:00.192Z,91.00
2022-08-19T06:12:33.981Z,90.87
2022-08-19T06:15:12.606Z,90.71
2022-08-19T06:17:42.706Z,90.72
2022-08-19T06:20:15.903Z,90.89
2022-08-19T06:22:47.088Z,90.65
2022-08-19T06:25:15.874Z,90.65
2022-08-19T06:28:11.537Z,91.28
2022-08-19T06:30:34.137Z,91.64
2022-08-19T06:33:02.485Z,91.88
2022-08-19T06:35:30.924Z,91.43
2022-08-19T06:38:00.600Z,91.18
2022-08-19T06:40:28.878Z,90.54
2022-08-19T06:42:58.611Z,89.94
2022-08-19T06:45:34.560Z,89.26
2022-08-19T06:48:04.160Z,89.08
2022-08-19T06:50:32.497Z,89.01
2022-08-19T06:53:04.370Z,88.54
2022-08-19T06:55:33.413Z,88.28
2022-08-19T06:58:06.143Z,88.52
2022-08-19T07:00:34.831Z,88.20
2022-08-19T07:03:07.774Z,88.00
2022-08-19T07:05:45.827Z,87.76
2022-08-19T07:08:15.401Z,87.19
2022-08-19T07:10:50.206Z,86.80
2022-08-19T07:13:18.677Z,86.70
2022-08-19T07:15:47.972Z,86.22
2022-08-19T07:18:16.608Z,85.95
2022-08-19T07:20:45.700Z,85.05
2022-08-19T07:23:15.962Z,84.32
2022-08-19T07:25:53.067Z,83.55
2022-08-19T07:28:23.985Z,82.74
2022-08-19T07:30:54.024Z,82.21
2022-08-19T07:33:23.973Z,81.79
2022-08-19T07:35:56.397Z,80.97
2022-08-19T07:38:25.639Z,80.57
2022-08-19T07:40:55.522Z,81.06
2022-08-19T07:43:34.894Z,80.64
2022-08-19T07:46:04.436Z,80.27
2022-08-19T07:48:33.549Z,80.16
2022-08-19T07:51:07.284Z,79.37
2022-08-19T07:53:51.777Z,79.37
2022-08-19T07:56:21.896Z,79.09
2022-08-19T07:58:53.043Z,77.89
2022-08-19T08:01:27.490Z,77.07
2022-08-19T08:04:15.994Z,76.85
2022-08-19T08:07:19.504Z,76.86
2022-08-19T08:09:50.257Z,75.78
2022-08-19T08:12:34.707Z,75.18
2022-08-19T08:15:12.740Z,75.06
2022-08-19T08:17:49.025Z,74.76
2022-08-19T08:20:19.675Z,74.11
2022-08-19T08:23:07.527Z,73.66
2022-08-19T08:25:37.415Z,72.88
2022-08-19T08:28:06.713Z,72.73
2022-08-19T08:33:39.544Z,72.40
2022-08-19T08:36:14.694Z,72.07
2022-08-19T08:41:32.947Z,71.89
2022-08-19T08:44:05.321Z,72.00
2022-08-19T08:56:26.441Z,70.88
2022-08-19T08:59:36.910Z,70.22
2022-08-19T09:02:41.869Z,69.43
2022-08-19T09:05:16.868Z,69.50
2022-08-19T09:11:42.624Z,68.49
2022-08-19T09:14:56.658Z,68.77
2022-08-19T09:17:32.066Z,68.85
2022-08-19T09:20:24.019Z,68.70
2022-08-19T09:22:54.745Z,68.64
2022-08-19T09:25:24.779Z,68.26
2022-08-19T09:28:02.846Z,67.61
2022-08-19T09:30:43.654Z,67.61
2022-08-19T09:33:13.594Z,67.54
2022-08-19T09:35:49.884Z,67.50
2022-08-19T09:38:22.783Z,67.09
2022-08-19T09:40:51.338Z,65.88
2022-08-19T09:43:33.237Z,63.87
2022-08-19T09:46:10.432Z,63.71
2022-08-19T09:48:41.516Z,62.89
2022-08-19T09:51:18.507Z,62.30
2022-08-19T09:53:52.046Z,62.68
2022-08-19T09:56:23.583Z,62.51
2022-08-19T09:58:52.957Z,62.43
2022-08-19T10:01:27.083Z,62.80
2022-08-19T10:04:00.458Z,63.19
2022-08-19T10:06:43.973Z,63.28
2022-08-19T10:09:18.633Z,63.26
2022-08-19T10:12:04.540Z,63.13
2022-08-19T10:14:35.637Z,62.78
2022-08-19T10:17:17.432Z,62.54
2022-08-19T10:19:52.673Z,61.86
2022-08-19T10:22:25.713Z,61.38
2022-08-19T10:24:56.674Z,59.71
2022-08-19T10:27:26.383Z,58.76
2022-08-19T10:29:55.244Z,58.90
2022-08-19T10:32:34.256Z,58.20
2022-08-19T10:35:09.353Z,59.25
2022-08-19T10:37:42.295Z,59.56
2022-08-19T10:40:28.982Z,59.09
2022-08-19T10:42:57.537Z,58.88
2022-08-19T10:45:32.390Z,58.76
2022-08-19T10:48:01.225Z,58.67
2022-08-19T10:50:49.924Z,58.77
2022-08-19T10:53:18.310Z,58.72
2022-08-19T10:56:05.364Z,58.45
2022-08-19T10:58:33.768Z,57.94
2022-08-19T11:01:02.315Z,57.81
2022-08-19T11:03:31.638Z,57.81
2022-08-19T11:06:07.752Z,57.43
2022-08-19T11:08:38.725Z,56.59
2022-08-19T11:11:09.103Z,56.19
2022-08-19T11:13:41.230Z,56.13
2022-08-19T11:16:14.369Z,55.95
2022-08-19T11:18:55.267Z,55.09
2022-08-19T11:21:34.001Z,55.10
2022-08-19T11:24:07.826Z,55.21
2022-08-19T11:26:41.912Z,55.39
2022-08-19T11:29:14.239Z,55.58
2022-08-19T11:31:47.100Z,55.75
2022-08-19T11:34:23.812Z,56.23
2022-08-19T11:36:56.009Z,56.13
2022-08-19T11:39:26.556Z,55.99
2022-08-19T11:41:55.346Z,56.22
2022-08-19T11:44:23.690Z,56.25
2022-08-19T11:46:53.951Z,56.09
2022-08-19T11:49:22.369Z,56.26
2022-08-19T11:51:51.745Z,56.05
2022-08-19T11:54:22.418Z,56.30
2022-08-19T11:56:50.887Z,56.14
2022-08-19T11:59:19.256Z,56.10
2022-08-19T12:01:47.576Z,55.89
2022-08-19T12:04:15.909Z,55.15
2022-08-19T12:06:46.956Z,54.99
2022-08-19T12:09:16.544Z,54.82
2022-08-19T12:11:45.084Z,54.38
2022-08-19T12:14:19.948Z,53.85
2022-08-19T12:16:49.050Z,53.51
2022-08-19T12:19:21.870Z,53.20
2022-08-19T12:21:54.442Z,52.87
2022-08-19T12:24:24.472Z,52.80
2022-08-19T12:26:54.444Z,52.91
2022-08-19T12:29:25.108Z,52.33
2022-08-19T12:31:53.434Z,51.94
2022-08-19T12:34:23.110Z,52.02
2022-08-19T12:36:51.525Z,51.45
2022-08-19T12:39:19.902Z,51.18
2022-08-19T12:41:54.047Z,50.74
2022-08-19T12:44:29.357Z,50.72
2022-08-19T12:47:06.140Z,50.81
2022-08-19T12:49:53.187Z,50.81
2022-08-19T12:52:28.091Z,50.10
2022-08-19T12:54:58.274Z,49.97
2022-08-19T12:57:32.306Z,49.92
2022-08-19T13:00:14.439Z,49.75
2022-08-19T13:02:48.302Z,49.49
2022-08-19T13:05:26.772Z,49.48
2022-08-19T13:08:01.123Z,48.94
2022-08-19T13:10:35.856Z,48.42
2022-08-19T13:13:10.907Z,48.70
2022-08-19T13:15:42.487Z,48.75
2022-08-19T13:18:13.580Z,48.39
2022-08-19T13:20:42.424Z,48.52
2022-08-19T13:23:20.964Z,48.33
2022-08-19T13:26:03.347Z,48.58
2022-08-19T13:28:57.402Z,48.23
2022-08-19T13:31:51.929Z,48.36
2022-08-19T13:34:40.407Z,48.11
2022-08-19T13:37:08.894Z,47.69
2022-08-19T13:39:37.942Z,48.04
2022-08-19T13:42:08.256Z,48.25
2022-08-19T13:44:36.792Z,48.29
2022-08-19T13:47:07.905Z,48.91
2022-08-19T13:49:37.414Z,49.18
2022-08-19T13:52:06.856Z,49.39
2022-08-19T13:54:35.318Z,49.77
2022-08-19T13:57:03.999Z,50.38
2022-08-19T13:59:33.531Z,50.31
2022-08-19T14:02:02.135Z,50.57
2022-08-19T14:04:30.482Z,51.01
2022-08-19T14:06:58.876Z,51.11
2022-08-19T14:09:27.201Z,51.50
2022-08-19T14:11:56.359Z,51.45
2022-08-19T14:14:24.739Z,51.54
2022-08-19T14:16:53.098Z,51.78
2022-08-19T14:19:22.357Z,51.80
2022-08-19T14:21:51.947Z,52.16
2022-08-19T14:24:20.412Z,51.95
2022-08-19T14:26:48.995Z,52.13
2022-08-19T14:29:17.665Z,52.25
2022-08-19T14:31:46.081Z,52.32
2022-08-19T14:34:14.513Z,52.72
2022-08-19T14:36:43.086Z,53.06
2022-08-19T14:39:11.608Z,53.36
2022-08-19T14:41:42.991Z,53.24
2022-08-19T14:44:13.481Z,53.49
2022-08-19T14:46:41.885Z,53.68
2022-08-19T14:49:20.594Z,53.81
2022-08-19T14:51:58.049Z,53.76
2022-08-19T14:54:26.704Z,54.01
2022-08-19T14:56:58.826Z,54.24
2022-08-19T14:59:28.292Z,54.10
2022-08-19T15:01:56.645Z,54.38
2022-08-19T15:04:25.041Z,54.18
2022-08-19T15:06:53.351Z,54.62
2022-08-19T15:09:21.731Z,54.19
2022-08-19T15:11:51.721Z,54.54
2022-08-19T15:14:21.971Z,54.64
2022-08-19T15:16:50.566Z,54.72
2022-08-19T15:19:19.455Z,54.81
2022-08-19T15:21:47.870Z,55.15
2022-08-19T15:24:16.262Z,55.04
2022-08-19T15:26:45.064Z,55.11
2022-08-19T15:29:16.774Z,55.04
2022-08-19T15:31:46.037Z,55.38
2022-08-19T15:34:18.022Z,55.39
2022-08-19T15:36:46.317Z,55.61
2022-08-19T15:39:14.713Z,56.30
2022-08-19T15:41:43.332Z,56.57
2022-08-19T15:44:18.527Z,57.23
2022-08-19T15:46:49.375Z,57.48
2022-08-19T15:49:19.474Z,57.89
2022-08-19T15:51:51.790Z,58.07
2022-08-19T15:54:21.953Z,58.47
2022-08-19T15:57:10.635Z,59.16
2022-08-19T16:00:00.099Z,59.99
2022-08-19T16:02:53.668Z,60.65
2022-08-19T16:05:45.291Z,61.57
2022-08-19T16:08:13.813Z,62.27
2022-08-19T16:10:42.686Z,63.14
2022-08-19T16:13:11.016Z,63.85
2022-08-19T16:15:41.986Z,64.25
2022-08-19T16:18:10.659Z,64.91
2022-08-19T16:20:39.333Z,65.92
2022-08-19T16:23:08.002Z,66.16
2022-08-19T16:25:36.579Z,66.28
2022-08-19T16:28:07.231Z,65.84
2022-08-19T16:30:41.790Z,65.62
2022-08-19T16:33:10.975Z,65.40
2022-08-19T16:35:39.640Z,64.99
2022-08-19T16:38:08.048Z,65.58
2022-08-19T16:40:36.438Z,66.07
2022-08-19T16:43:05.432Z,66.10
2022-08-19T16:45:34.089Z,65.78
2022-08-19T16:48:03.929Z,66.13
2022-08-19T16:50:48.680Z,66.36
2022-08-19T16:53:22.015Z,66.60
2022-08-19T16:55:50.900Z,66.83
2022-08-19T16:58:19.951Z,66.94
2022-08-19T17:00:50.137Z,67.18
2022-08-19T17:03:35.941Z,67.45
2022-08-19T17:06:20.608Z,68.00
2022-08-19T17:08:58.755Z,68.26
2022-08-19T17:11:37.097Z,68.58
2022-08-19T17:14:06.271Z,68.83
2022-08-19T17:16:40.418Z,68.83
2022-08-19T17:19:08.922Z,69.25
2022-08-19T17:21:40.524Z,69.66
2022-08-19T17:24:09.089Z,69.84
2022-08-19T17:26:38.156Z,70.00
2022-08-19T17:29:06.425Z,70.40
2022-08-19T17:31:35.266Z,70.51
2022-08-19T17:34:04.580Z,70.75
2022-08-19T17:36:34.050Z,70.99
2022-08-19T17:39:05.291Z,71.06
2022-08-19T17:41:34.603Z,71.57
2022-08-19T17:44:04.260Z,72.03
2022-08-19T17:46:34.085Z,72.31
2022-08-19T17:49:02.854Z,72.88
2022-08-19T17:51:33.974Z,73.12
2022-08-19T17:54:05.627Z,73.46
2022-08-19T17:56:34.472Z,73.83
2022-08-19T17:59:02.759Z,74.43
2022-08-19T18:01:45.814Z,75.36
2022-08-19T18:04:22.460Z,75.61
2022-08-19T18:06:53.368Z,76.07
2022-08-19T18:09:27.088Z,76.49
2022-08-19T18:11:57.902Z,76.79
2022-08-19T18:14:34.575Z,76.75
2022-08-19T18:17:12.786Z,76.90
2022-08-19T18:19:43.960Z,77.06
2022-08-19T18:22:27.356Z,77.31
2022-08-19T18:24:57.836Z,77.69
2022-08-19T18:27:27.783Z,77.85
2022-08-19T18:29:59.409Z,78.17
2022-08-19T18:32:34.490Z,78.53
2022-08-19T18:35:05.830Z,78.89
2022-08-19T18:37:34.193Z,79.04
2022-08-19T18:40:21.492Z,79.47
2022-08-19T18:43:08.803Z,79.80
2022-08-19T18:45:58.203Z,80.48
2022-08-19T18:48:45.827Z,81.03
2022-08-19T18:51:16.346Z,81.66
2022-08-19T18:53:48.609Z,82.38
2022-08-19T18:56:19.988Z,82.89
2022-08-19T18:58:50.452Z,83.25
2022-08-19T19:01:29.765Z,83.52
2022-08-19T19:04:03.994Z,83.30
2022-08-19T19:06:40.137Z,83.42
2022-08-19T19:09:19.633Z,83.48
2022-08-19T19:11:55.631Z,83.41
2022-08-19T19:14:48.559Z,82.67
2022-08-19T19:17:25.738Z,81.92
2022-08-19T19:19:54.290Z,81.54
2022-08-19T19:22:24.082Z,81.95
2022-08-19T19:24:56.122Z,82.52
2022-08-19T19:27:24.408Z,82.82
2022-08-19T19:29:53.162Z,83.27
2022-08-19T19:32:27.142Z,83.86
2022-08-19T19:34:55.752Z,84.45
2022-08-19T19:37:24.109Z,84.91
2022-08-19T19:39:52.556Z,85.33
2022-08-19T19:42:23.751Z,85.43
2022-08-19T19:44:55.771Z,86.00
2022-08-19T19:47:28.545Z,86.41
2022-08-19T19:50:14.228Z,86.94
2022-08-19T19:52:46.683Z,87.32
2022-08-19T19:55:18.128Z,87.82
2022-08-19T19:57:49.865Z,88.17
2022-08-19T20:00:19.122Z,88.58
2022-08-19T20:02:50.662Z,89.72
2022-08-19T20:05:21.689Z,90.51
2022-08-19T20:08:11.788Z,91.04
2022-08-19T20:10:42.370Z,91.26
2022-08-19T20:13:15.420Z,91.61
2022-08-19T20:15:43.979Z,92.04
2022-08-19T20:18:14.514Z,92.05
2022-08-19T20:20:45.893Z,92.61
2022-08-19T20:23:14.430Z,92.93
2022-08-19T20:25:43.739Z,93.19
2022-08-19T20:28:12.616Z,93.37
2022-08-19T20:30:45.578Z,93.58
2022-08-19T20:33:15.022Z,92.96
2022-08-19T20:35:45.091Z,94.97
2022-08-19T20:38:13.989Z,95.88
2022-08-19T20:43:59.829Z,98.07
2022-08-19T20:56:32.640Z,94.80
2022-08-19T21:00:36.475Z,94.94
2022-08-19T21:03:05.534Z,94.62
2022-08-19T21:05:33.860Z,94.61
2022-08-19T21:08:03.762Z,94.73
2022-08-19T21:10:32.573Z,94.78
2022-08-19T21:13:03.770Z,94.79
2022-08-19T21:15:32.341Z,94.97
2022-08-19T21:18:00.749Z,95.19
2022-08-19T21:20:29.113Z,95.27
2022-08-19T21:22:57.416Z,95.50
2022-08-19T21:25:25.939Z,95.71
2022-08-19T21:27:54.340Z,95.77
2022-08-19T21:30:23.102Z,95.82
2022-08-19T21:32:52.856Z,96.19
2022-08-19T21:35:23.749Z,96.06
2022-08-19T21:37:52.391Z,96.16
2022-08-19T21:40:21.323Z,96.44
2022-08-19T21:42:49.647Z,96.46
2022-08-19T21:45:19.180Z,96.88
2022-08-19T21:47:47.513Z,97.06
2022-08-19T21:50:20.977Z,97.21
2022-08-19T21:52:49.400Z,97.47
2022-08-19T21:55:18.108Z,97.41
2022-08-19T22:01:30.368Z,97.84
2022-08-19T22:04:08.294Z,98.02
2022-08-19T22:06:36.662Z,98.03
2022-08-19T22:09:05.488Z,98.15
2022-08-19T22:11:34.677Z,98.29
2022-08-19T22:14:04.319Z,98.34
2022-08-19T22:16:33.060Z,98.76
2022-08-19T22:19:01.439Z,98.75
2022-08-19T22:21:35.592Z,98.67
2022-08-19T22:24:15.941Z,98.86
2022-08-19T22:26:44.360Z,99.10
2022-08-19T22:29:15.724Z,99.20
2022-08-19T22:31:45.687Z,99.08
2022-08-19T22:34:23.684Z,99.43
2022-08-19T22:36:52.800Z,99.46
2022-08-19T22:39:22.683Z,99.53
2022-08-19T22:41:51.077Z,99.55
2022-08-19T22:44:19.877Z,99.65
2022-08-19T22:46:49.418Z,99.81
2022-08-19T23:07:05.511Z,99.93
2022-08-19T23:09:34.063Z,100.00
2022-08-19T23:12:05.286Z,100.00
2022-08-19T23:14:36.474Z,99.97
2022-08-19T23:17:05.872Z,100.00
2022-08-19T23:19:34.680Z,99.99
2022-08-19T23:22:05.175Z,100.00
2022-08-19T23:24:33.570Z,100.00
2022-08-19T23:27:23.032Z,100.00
2022-08-19T23:30:11.777Z,100.00
2022-08-19T23:32:40.843Z,100.00
2022-08-19T23:35:09.654Z,100.00
2022-08-19T23:37:38.213Z,100.00
2022-08-19T23:40:09.990Z,100.00
2022-08-19T23:42:43.070Z,100.00
2022-08-19T23:45:13.388Z,100.00
2022-08-19T23:47:42.375Z,100.00
2022-08-19T23:50:11.626Z,100.00
2022-08-19T23:52:53.452Z,100.00
